sensor_id;sensor_type;location;lat;lon;timestamp;temperature;humidity
7206;DHT22;3644;53.480;10.004;2022-07-22T00:00:29;20.90;99.90
7206;DHT22;3644;53.480;10.004;2022-07-22T00:02:54;20.90;99.90
7206;DHT22;3644;53.480;10.004;2022-07-22T00:05:20;20.80;99.90
7206;DHT22;3644;53.480;10.004;2022-07-22T00:07:45;21.00;99.90
7206;DHT22;3644;53.480;10.004;2022-07-22T00:10:11;20.80;99.90
7206;DHT22;3644;53.480;10.004;2022-07-22T00:12:37;20.80;99.90
7206;DHT22;3644;53.480;10.004;2022-07-22T00:15:04;20.80;99.90
7206;DHT22;3644;53.480;10.004;2022-07-22T00:17:30;20.70;99.90
7206;DHT22;3644;53.480;10.004;2022-07-22T00:19:55;20.70;99.90
7206;DHT22;3644;53.480;10.004;2022-07-22T00:22:21;20.80;99.90
7206;DHT22;3644;53.480;10.004;2022-07-22T00:24:46;20.80;99.90
7206;DHT22;3644;53.480;10.004;2022-07-22T00:27:12;20.80;99.90
7206;DHT22;3644;53.480;10.004;2022-07-22T00:29:37;20.80;99.90
7206;DHT22;3644;53.480;10.004;2022-07-22T00:32:03;20.80;99.90
7206;DHT22;3644;53.480;10.004;2022-07-22T00:34:29;20.70;99.90
7206;DHT22;3644;53.480;10.004;2022-07-22T00:36:54;20.60;99.90
7206;DHT22;3644;53.480;10.004;2022-07-22T00:39:20;20.50;99.90
7206;DHT22;3644;53.480;10.004;2022-07-22T00:41:47;20.50;99.90
7206;DHT22;3644;53.480;10.004;2022-07-22T00:44:13;20.30;99.90
7206;DHT22;3644;53.480;10.004;2022-07-22T00:46:39;20.10;99.90
7206;DHT22;3644;53.480;10.004;2022-07-22T00:49:07;20.20;99.90
7206;DHT22;3644;53.480;10.004;2022-07-22T00:51:33;20.20;99.90
7206;DHT22;3644;53.480;10.004;2022-07-22T00:54:00;20.10;99.90
7206;DHT22;3644;53.480;10.004;2022-07-22T00:56:27;20.10;99.90
7206;DHT22;3644;53.480;10.004;2022-07-22T00:58:54;20.00;99.90
7206;DHT22;3644;53.480;10.004;2022-07-22T01:01:21;20.00;99.90
7206;DHT22;3644;53.480;10.004;2022-07-22T01:03:46;19.90;99.90
7206;DHT22;3644;53.480;10.004;2022-07-22T01:06:12;22.30;99.90
7206;DHT22;3644;53.480;10.004;2022-07-22T01:08:38;19.80;99.90
7206;DHT22;3644;53.480;10.004;2022-07-22T01:11:12;19.80;99.90
7206;DHT22;3644;53.480;10.004;2022-07-22T01:13:39;19.80;99.90
7206;DHT22;3644;53.480;10.004;2022-07-22T01:16:06;19.80;99.90
7206;DHT22;3644;53.480;10.004;2022-07-22T01:18:33;19.80;99.90
7206;DHT22;3644;53.480;10.004;2022-07-22T01:20:59;19.50;99.90
7206;DHT22;3644;53.480;10.004;2022-07-22T01:23:25;19.70;99.90
7206;DHT22;3644;53.480;10.004;2022-07-22T01:25:51;19.50;99.90
7206;DHT22;3644;53.480;10.004;2022-07-22T01:28:16;19.60;99.90
7206;DHT22;3644;53.480;10.004;2022-07-22T01:30:42;19.60;99.90
7206;DHT22;3644;53.480;10.004;2022-07-22T01:33:07;19.60;99.90
7206;DHT22;3644;53.480;10.004;2022-07-22T01:35:33;19.50;99.90
7206;DHT22;3644;53.480;10.004;2022-07-22T01:37:58;19.50;99.90
7206;DHT22;3644;53.480;10.004;2022-07-22T01:40:24;19.60;99.90
7206;DHT22;3644;53.480;10.004;2022-07-22T01:42:50;19.50;99.90
7206;DHT22;3644;53.480;10.004;2022-07-22T01:45:15;19.20;99.90
7206;DHT22;3644;53.480;10.004;2022-07-22T01:47:41;19.30;99.90
7206;DHT22;3644;53.480;10.004;2022-07-22T01:50:10;19.20;99.90
7206;DHT22;3644;53.480;10.004;2022-07-22T01:52:36;19.10;99.90
7206;DHT22;3644;53.480;10.004;2022-07-22T01:55:02;19.10;99.90
7206;DHT22;3644;53.480;10.004;2022-07-22T01:57:28;19.10;99.90
7206;DHT22;3644;53.480;10.004;2022-07-22T01:59:53;19.20;99.90
7206;DHT22;3644;53.480;10.004;2022-07-22T02:02:19;19.00;99.90
7206;DHT22;3644;53.480;10.004;2022-07-22T02:04:44;18.90;99.90
7206;DHT22;3644;53.480;10.004;2022-07-22T02:07:10;18.90;99.90
7206;DHT22;3644;53.480;10.004;2022-07-22T02:09:35;18.80;99.90
7206;DHT22;3644;53.480;10.004;2022-07-22T02:12:01;18.80;99.90
7206;DHT22;3644;53.480;10.004;2022-07-22T02:14:26;18.60;99.90
7206;DHT22;3644;53.480;10.004;2022-07-22T02:16:52;18.70;99.90
7206;DHT22;3644;53.480;10.004;2022-07-22T02:19:17;18.70;99.90
7206;DHT22;3644;53.480;10.004;2022-07-22T02:21:43;18.80;99.90
7206;DHT22;3644;53.480;10.004;2022-07-22T02:24:08;18.70;99.90
7206;DHT22;3644;53.480;10.004;2022-07-22T02:26:34;18.60;99.90
7206;DHT22;3644;53.480;10.004;2022-07-22T02:29:00;18.60;99.90
7206;DHT22;3644;53.480;10.004;2022-07-22T02:31:25;18.40;99.90
7206;DHT22;3644;53.480;10.004;2022-07-22T02:33:51;18.50;99.90
7206;DHT22;3644;53.480;10.004;2022-07-22T02:36:17;18.60;99.90
7206;DHT22;3644;53.480;10.004;2022-07-22T02:38:42;18.70;99.90
7206;DHT22;3644;53.480;10.004;2022-07-22T02:41:08;18.60;99.90
7206;DHT22;3644;53.480;10.004;2022-07-22T02:43:33;18.60;99.90
7206;DHT22;3644;53.480;10.004;2022-07-22T02:45:59;18.60;99.90
7206;DHT22;3644;53.480;10.004;2022-07-22T02:48:24;18.60;99.90
7206;DHT22;3644;53.480;10.004;2022-07-22T02:50:50;18.50;99.90
7206;DHT22;3644;53.480;10.004;2022-07-22T02:53:15;18.70;99.90
7206;DHT22;3644;53.480;10.004;2022-07-22T02:55:41;18.80;99.90
7206;DHT22;3644;53.480;10.004;2022-07-22T02:58:08;18.80;99.90
7206;DHT22;3644;53.480;10.004;2022-07-22T03:00:35;18.80;99.90
7206;DHT22;3644;53.480;10.004;2022-07-22T03:03:00;18.70;99.90
7206;DHT22;3644;53.480;10.004;2022-07-22T03:05:26;18.70;99.90
7206;DHT22;3644;53.480;10.004;2022-07-22T03:07:52;18.60;99.90
7206;DHT22;3644;53.480;10.004;2022-07-22T03:10:17;18.60;99.90
7206;DHT22;3644;53.480;10.004;2022-07-22T03:12:43;18.70;99.90
7206;DHT22;3644;53.480;10.004;2022-07-22T03:15:09;18.70;99.90
7206;DHT22;3644;53.480;10.004;2022-07-22T03:17:35;18.60;99.90
7206;DHT22;3644;53.480;10.004;2022-07-22T03:20:05;18.40;99.90
7206;DHT22;3644;53.480;10.004;2022-07-22T03:22:31;18.50;99.90
7206;DHT22;3644;53.480;10.004;2022-07-22T03:24:58;18.60;99.90
7206;DHT22;3644;53.480;10.004;2022-07-22T03:27:23;18.40;99.90
7206;DHT22;3644;53.480;10.004;2022-07-22T03:29:49;18.40;99.90
7206;DHT22;3644;53.480;10.004;2022-07-22T03:32:14;18.60;99.90
7206;DHT22;3644;53.480;10.004;2022-07-22T03:34:40;18.50;99.90
7206;DHT22;3644;53.480;10.004;2022-07-22T03:37:05;18.60;99.90
7206;DHT22;3644;53.480;10.004;2022-07-22T03:39:31;18.30;99.90
7206;DHT22;3644;53.480;10.004;2022-07-22T03:41:56;18.40;99.90
7206;DHT22;3644;53.480;10.004;2022-07-22T03:44:22;18.50;99.90
7206;DHT22;3644;53.480;10.004;2022-07-22T03:46:47;18.20;99.90
7206;DHT22;3644;53.480;10.004;2022-07-22T03:49:13;18.00;99.90
7206;DHT22;3644;53.480;10.004;2022-07-22T03:51:38;18.00;99.90
7206;DHT22;3644;53.480;10.004;2022-07-22T03:54:04;18.20;99.90
7206;DHT22;3644;53.480;10.004;2022-07-22T03:56:29;18.30;99.90
7206;DHT22;3644;53.480;10.004;2022-07-22T03:58:55;18.30;99.90
7206;DHT22;3644;53.480;10.004;2022-07-22T04:01:20;18.40;99.90
7206;DHT22;3644;53.480;10.004;2022-07-22T04:03:46;18.50;99.90
7206;DHT22;3644;53.480;10.004;2022-07-22T04:06:11;18.50;99.90
7206;DHT22;3644;53.480;10.004;2022-07-22T04:08:37;18.40;99.90
7206;DHT22;3644;53.480;10.004;2022-07-22T04:11:02;18.40;99.90
7206;DHT22;3644;53.480;10.004;2022-07-22T04:13:28;18.40;99.90
7206;DHT22;3644;53.480;10.004;2022-07-22T04:15:53;18.30;99.90
7206;DHT22;3644;53.480;10.004;2022-07-22T04:18:19;18.30;99.90
7206;DHT22;3644;53.480;10.004;2022-07-22T04:20:44;18.20;99.90
7206;DHT22;3644;53.480;10.004;2022-07-22T04:23:10;18.20;99.90
7206;DHT22;3644;53.480;10.004;2022-07-22T04:25:35;18.20;99.90
7206;DHT22;3644;53.480;10.004;2022-07-22T04:28:01;18.10;99.90
7206;DHT22;3644;53.480;10.004;2022-07-22T04:30:27;17.90;99.90
7206;DHT22;3644;53.480;10.004;2022-07-22T04:32:52;17.80;99.90
7206;DHT22;3644;53.480;10.004;2022-07-22T04:35:18;17.90;99.90
7206;DHT22;3644;53.480;10.004;2022-07-22T04:37:43;18.00;99.90
7206;DHT22;3644;53.480;10.004;2022-07-22T04:40:09;17.90;99.90
7206;DHT22;3644;53.480;10.004;2022-07-22T04:42:35;18.00;99.90
7206;DHT22;3644;53.480;10.004;2022-07-22T04:45:01;18.00;99.90
7206;DHT22;3644;53.480;10.004;2022-07-22T04:47:26;18.00;99.90
7206;DHT22;3644;53.480;10.004;2022-07-22T04:49:52;18.00;99.90
7206;DHT22;3644;53.480;10.004;2022-07-22T04:52:18;18.20;99.90
7206;DHT22;3644;53.480;10.004;2022-07-22T04:54:43;18.10;99.90
7206;DHT22;3644;53.480;10.004;2022-07-22T04:57:09;18.00;99.90
7206;DHT22;3644;53.480;10.004;2022-07-22T04:59:35;18.00;99.90
7206;DHT22;3644;53.480;10.004;2022-07-22T05:02:00;17.90;99.90
7206;DHT22;3644;53.480;10.004;2022-07-22T05:04:26;17.90;99.90
7206;DHT22;3644;53.480;10.004;2022-07-22T05:06:51;18.00;99.90
7206;DHT22;3644;53.480;10.004;2022-07-22T05:09:17;18.00;99.90
7206;DHT22;3644;53.480;10.004;2022-07-22T05:11:42;18.20;99.90
7206;DHT22;3644;53.480;10.004;2022-07-22T05:14:08;18.30;99.90
7206;DHT22;3644;53.480;10.004;2022-07-22T05:16:35;18.10;99.90
7206;DHT22;3644;53.480;10.004;2022-07-22T05:19:03;18.00;99.90
7206;DHT22;3644;53.480;10.004;2022-07-22T05:21:28;18.00;99.90
7206;DHT22;3644;53.480;10.004;2022-07-22T05:23:54;18.20;99.90
7206;DHT22;3644;53.480;10.004;2022-07-22T05:26:19;18.20;99.90
7206;DHT22;3644;53.480;10.004;2022-07-22T05:28:45;18.00;99.90
7206;DHT22;3644;53.480;10.004;2022-07-22T05:31:10;17.80;99.90
7206;DHT22;3644;53.480;10.004;2022-07-22T05:33:36;17.60;99.90
7206;DHT22;3644;53.480;10.004;2022-07-22T05:36:02;17.70;99.90
7206;DHT22;3644;53.480;10.004;2022-07-22T05:38:28;17.90;99.90
7206;DHT22;3644;53.480;10.004;2022-07-22T05:40:54;17.90;99.90
7206;DHT22;3644;53.480;10.004;2022-07-22T05:43:19;17.70;99.90
7206;DHT22;3644;53.480;10.004;2022-07-22T05:45:45;17.80;99.90
7206;DHT22;3644;53.480;10.004;2022-07-22T05:48:10;18.00;99.90
7206;DHT22;3644;53.480;10.004;2022-07-22T05:50:36;18.00;99.90
7206;DHT22;3644;53.480;10.004;2022-07-22T05:53:01;18.30;99.90
7206;DHT22;3644;53.480;10.004;2022-07-22T05:55:27;18.40;99.90
7206;DHT22;3644;53.480;10.004;2022-07-22T05:57:52;18.50;99.90
7206;DHT22;3644;53.480;10.004;2022-07-22T06:00:18;18.60;99.90
7206;DHT22;3644;53.480;10.004;2022-07-22T06:02:44;18.60;99.90
7206;DHT22;3644;53.480;10.004;2022-07-22T06:05:09;18.40;99.90
7206;DHT22;3644;53.480;10.004;2022-07-22T06:07:35;18.40;99.90
7206;DHT22;3644;53.480;10.004;2022-07-22T06:10:00;18.40;99.90
7206;DHT22;3644;53.480;10.004;2022-07-22T06:12:26;18.30;99.90
7206;DHT22;3644;53.480;10.004;2022-07-22T06:14:51;18.50;99.90
7206;DHT22;3644;53.480;10.004;2022-07-22T06:17:17;18.70;99.90
7206;DHT22;3644;53.480;10.004;2022-07-22T06:19:42;18.80;99.90
7206;DHT22;3644;53.480;10.004;2022-07-22T06:22:08;18.90;99.90
7206;DHT22;3644;53.480;10.004;2022-07-22T06:24:34;18.90;99.90
7206;DHT22;3644;53.480;10.004;2022-07-22T06:27:00;19.10;99.90
7206;DHT22;3644;53.480;10.004;2022-07-22T06:29:25;19.10;99.90
7206;DHT22;3644;53.480;10.004;2022-07-22T06:31:51;19.00;99.90
7206;DHT22;3644;53.480;10.004;2022-07-22T06:34:16;18.80;99.90
7206;DHT22;3644;53.480;10.004;2022-07-22T06:36:42;19.00;99.90
7206;DHT22;3644;53.480;10.004;2022-07-22T06:39:07;19.00;99.90
7206;DHT22;3644;53.480;10.004;2022-07-22T06:41:33;19.00;99.90
7206;DHT22;3644;53.480;10.004;2022-07-22T06:43:58;19.20;99.90
7206;DHT22;3644;53.480;10.004;2022-07-22T06:46:24;19.30;99.90
7206;DHT22;3644;53.480;10.004;2022-07-22T06:48:49;19.40;99.90
7206;DHT22;3644;53.480;10.004;2022-07-22T06:51:15;19.40;99.90
7206;DHT22;3644;53.480;10.004;2022-07-22T06:53:42;19.40;99.90
7206;DHT22;3644;53.480;10.004;2022-07-22T06:56:07;19.70;99.90
7206;DHT22;3644;53.480;10.004;2022-07-22T06:58:33;19.80;99.90
7206;DHT22;3644;53.480;10.004;2022-07-22T07:00:59;19.70;99.90
7206;DHT22;3644;53.480;10.004;2022-07-22T07:03:24;19.80;99.90
7206;DHT22;3644;53.480;10.004;2022-07-22T07:05:54;19.80;99.90
7206;DHT22;3644;53.480;10.004;2022-07-22T07:08:19;19.90;99.90
7206;DHT22;3644;53.480;10.004;2022-07-22T07:10:45;19.80;99.90
7206;DHT22;3644;53.480;10.004;2022-07-22T07:13:10;19.60;99.90
7206;DHT22;3644;53.480;10.004;2022-07-22T07:15:36;19.80;99.90
7206;DHT22;3644;53.480;10.004;2022-07-22T07:18:02;20.00;99.90
7206;DHT22;3644;53.480;10.004;2022-07-22T07:20:27;20.10;99.90
7206;DHT22;3644;53.480;10.004;2022-07-22T07:22:53;20.00;99.90
7206;DHT22;3644;53.480;10.004;2022-07-22T07:25:19;20.00;99.90
7206;DHT22;3644;53.480;10.004;2022-07-22T07:27:45;20.10;99.90
7206;DHT22;3644;53.480;10.004;2022-07-22T07:30:11;20.10;99.90
7206;DHT22;3644;53.480;10.004;2022-07-22T07:32:36;20.10;99.90
7206;DHT22;3644;53.480;10.004;2022-07-22T07:35:04;20.10;99.90
7206;DHT22;3644;53.480;10.004;2022-07-22T07:37:30;20.00;99.90
7206;DHT22;3644;53.480;10.004;2022-07-22T07:39:57;20.10;99.90
7206;DHT22;3644;53.480;10.004;2022-07-22T07:42:22;20.10;99.90
7206;DHT22;3644;53.480;10.004;2022-07-22T07:44:48;20.20;99.90
7206;DHT22;3644;53.480;10.004;2022-07-22T07:47:13;20.30;99.90
7206;DHT22;3644;53.480;10.004;2022-07-22T07:49:43;20.20;99.90
7206;DHT22;3644;53.480;10.004;2022-07-22T07:52:09;20.30;99.90
7206;DHT22;3644;53.480;10.004;2022-07-22T07:54:35;20.40;99.90
7206;DHT22;3644;53.480;10.004;2022-07-22T07:57:01;20.50;99.90
7206;DHT22;3644;53.480;10.004;2022-07-22T07:59:27;20.60;99.90
7206;DHT22;3644;53.480;10.004;2022-07-22T08:01:52;20.40;99.90
7206;DHT22;3644;53.480;10.004;2022-07-22T08:04:18;20.30;99.90
7206;DHT22;3644;53.480;10.004;2022-07-22T08:06:43;20.50;99.90
7206;DHT22;3644;53.480;10.004;2022-07-22T08:09:09;20.60;99.90
7206;DHT22;3644;53.480;10.004;2022-07-22T08:11:35;20.60;99.90
7206;DHT22;3644;53.480;10.004;2022-07-22T08:14:01;20.90;99.90
7206;DHT22;3644;53.480;10.004;2022-07-22T08:16:26;21.00;99.90
7206;DHT22;3644;53.480;10.004;2022-07-22T08:18:52;21.10;99.90
7206;DHT22;3644;53.480;10.004;2022-07-22T08:21:18;21.20;99.90
7206;DHT22;3644;53.480;10.004;2022-07-22T08:23:44;21.10;99.90
7206;DHT22;3644;53.480;10.004;2022-07-22T08:26:09;21.40;99.90
7206;DHT22;3644;53.480;10.004;2022-07-22T08:28:35;21.50;99.90
7206;DHT22;3644;53.480;10.004;2022-07-22T08:31:00;21.20;99.90
7206;DHT22;3644;53.480;10.004;2022-07-22T08:33:26;21.00;99.90
7206;DHT22;3644;53.480;10.004;2022-07-22T08:35:52;20.90;99.90
7206;DHT22;3644;53.480;10.004;2022-07-22T08:38:17;20.70;99.90
7206;DHT22;3644;53.480;10.004;2022-07-22T08:40:43;20.50;99.90
7206;DHT22;3644;53.480;10.004;2022-07-22T08:43:08;20.40;99.90
7206;DHT22;3644;53.480;10.004;2022-07-22T08:45:34;20.40;99.90
7206;DHT22;3644;53.480;10.004;2022-07-22T08:47:59;20.20;99.90
7206;DHT22;3644;53.480;10.004;2022-07-22T08:50:29;20.10;99.90
7206;DHT22;3644;53.480;10.004;2022-07-22T08:52:54;20.20;99.90
7206;DHT22;3644;53.480;10.004;2022-07-22T08:55:20;20.30;99.90
7206;DHT22;3644;53.480;10.004;2022-07-22T08:57:46;20.20;99.90
7206;DHT22;3644;53.480;10.004;2022-07-22T09:00:16;20.40;99.90
7206;DHT22;3644;53.480;10.004;2022-07-22T09:02:43;20.70;99.90
7206;DHT22;3644;53.480;10.004;2022-07-22T09:05:10;20.70;99.90
7206;DHT22;3644;53.480;10.004;2022-07-22T09:07:38;20.90;99.90
7206;DHT22;3644;53.480;10.004;2022-07-22T09:10:07;21.10;99.90
7206;DHT22;3644;53.480;10.004;2022-07-22T09:12:33;21.30;99.90
7206;DHT22;3644;53.480;10.004;2022-07-22T09:15:02;21.30;99.90
7206;DHT22;3644;53.480;10.004;2022-07-22T09:17:33;21.60;99.90
7206;DHT22;3644;53.480;10.004;2022-07-22T09:20:03;21.80;99.90
7206;DHT22;3644;53.480;10.004;2022-07-22T09:27:45;21.30;99.90
7206;DHT22;3644;53.480;10.004;2022-07-22T09:30:17;21.10;99.90
7206;DHT22;3644;53.480;10.004;2022-07-22T09:32:43;20.90;99.90
7206;DHT22;3644;53.480;10.004;2022-07-22T09:35:10;20.70;99.90
7206;DHT22;3644;53.480;10.004;2022-07-22T09:37:38;20.80;99.90
7206;DHT22;3644;53.480;10.004;2022-07-22T09:40:15;20.90;99.90
7206;DHT22;3644;53.480;10.004;2022-07-22T09:42:52;20.80;99.90
7206;DHT22;3644;53.480;10.004;2022-07-22T09:45:19;20.80;99.90
7206;DHT22;3644;53.480;10.004;2022-07-22T09:47:45;20.70;99.90
7206;DHT22;3644;53.480;10.004;2022-07-22T09:50:23;20.80;99.90
7206;DHT22;3644;53.480;10.004;2022-07-22T09:52:51;20.90;99.90
7206;DHT22;3644;53.480;10.004;2022-07-22T09:55:18;21.00;99.90
7206;DHT22;3644;53.480;10.004;2022-07-22T09:57:44;21.00;99.90
7206;DHT22;3644;53.480;10.004;2022-07-22T10:00:11;21.00;99.90
7206;DHT22;3644;53.480;10.004;2022-07-22T10:02:45;21.10;99.90
7206;DHT22;3644;53.480;10.004;2022-07-22T10:05:12;21.30;99.90
7206;DHT22;3644;53.480;10.004;2022-07-22T10:07:41;21.50;99.90
7206;DHT22;3644;53.480;10.004;2022-07-22T10:10:08;21.60;99.90
7206;DHT22;3644;53.480;10.004;2022-07-22T10:12:36;21.70;99.90
7206;DHT22;3644;53.480;10.004;2022-07-22T10:15:02;21.70;99.90
7206;DHT22;3644;53.480;10.004;2022-07-22T10:17:28;21.70;99.90
7206;DHT22;3644;53.480;10.004;2022-07-22T10:19:54;21.70;99.90
7206;DHT22;3644;53.480;10.004;2022-07-22T10:22:46;21.70;99.90
7206;DHT22;3644;53.480;10.004;2022-07-22T10:25:14;21.90;99.90
7206;DHT22;3644;53.480;10.004;2022-07-22T10:27:58;22.00;99.90
7206;DHT22;3644;53.480;10.004;2022-07-22T10:30:33;22.40;99.90
7206;DHT22;3644;53.480;10.004;2022-07-22T10:33:16;22.20;99.90
7206;DHT22;3644;53.480;10.004;2022-07-22T10:36:02;21.80;99.90
7206;DHT22;3644;53.480;10.004;2022-07-22T10:38:30;21.60;99.90
7206;DHT22;3644;53.480;10.004;2022-07-22T10:40:58;21.50;99.90
7206;DHT22;3644;53.480;10.004;2022-07-22T10:43:25;21.80;99.90
7206;DHT22;3644;53.480;10.004;2022-07-22T10:46:01;21.80;99.90
7206;DHT22;3644;53.480;10.004;2022-07-22T10:48:46;21.50;99.90
7206;DHT22;3644;53.480;10.004;2022-07-22T10:51:20;21.60;99.90
7206;DHT22;3644;53.480;10.004;2022-07-22T10:53:59;21.50;99.90
7206;DHT22;3644;53.480;10.004;2022-07-22T10:56:34;21.70;99.90
7206;DHT22;3644;53.480;10.004;2022-07-22T10:59:12;21.80;99.90
7206;DHT22;3644;53.480;10.004;2022-07-22T11:01:43;21.80;99.90
7206;DHT22;3644;53.480;10.004;2022-07-22T11:04:18;22.10;99.90
7206;DHT22;3644;53.480;10.004;2022-07-22T11:06:45;22.50;99.90
7206;DHT22;3644;53.480;10.004;2022-07-22T11:09:13;22.50;99.90
7206;DHT22;3644;53.480;10.004;2022-07-22T11:11:50;22.50;99.90
7206;DHT22;3644;53.480;10.004;2022-07-22T11:14:24;22.30;99.90
7206;DHT22;3644;53.480;10.004;2022-07-22T11:16:57;22.10;99.90
7206;DHT22;3644;53.480;10.004;2022-07-22T11:19:24;22.20;99.90
7206;DHT22;3644;53.480;10.004;2022-07-22T11:21:52;22.50;99.90
7206;DHT22;3644;53.480;10.004;2022-07-22T11:24:18;22.60;99.90
7206;DHT22;3644;53.480;10.004;2022-07-22T11:26:47;22.60;99.90
7206;DHT22;3644;53.480;10.004;2022-07-22T11:29:31;22.70;99.90
7206;DHT22;3644;53.480;10.004;2022-07-22T11:31:59;22.70;99.90
7206;DHT22;3644;53.480;10.004;2022-07-22T11:34:26;22.60;99.90
7206;DHT22;3644;53.480;10.004;2022-07-22T11:36:52;22.80;99.90
7206;DHT22;3644;53.480;10.004;2022-07-22T11:39:21;22.70;99.90
7206;DHT22;3644;53.480;10.004;2022-07-22T11:41:47;22.60;99.90
7206;DHT22;3644;53.480;10.004;2022-07-22T11:44:18;22.70;99.90
7206;DHT22;3644;53.480;10.004;2022-07-22T11:46:43;22.50;99.90
7206;DHT22;3644;53.480;10.004;2022-07-22T11:49:11;22.60;99.90
7206;DHT22;3644;53.480;10.004;2022-07-22T11:51:38;23.00;99.90
7206;DHT22;3644;53.480;10.004;2022-07-22T11:54:05;23.10;99.90
7206;DHT22;3644;53.480;10.004;2022-07-22T11:56:31;23.10;99.90
7206;DHT22;3644;53.480;10.004;2022-07-22T11:58:57;23.20;99.90
7206;DHT22;3644;53.480;10.004;2022-07-22T12:01:26;23.10;99.90
7206;DHT22;3644;53.480;10.004;2022-07-22T12:03:54;22.80;99.90
7206;DHT22;3644;53.480;10.004;2022-07-22T12:06:22;22.90;99.90
7206;DHT22;3644;53.480;10.004;2022-07-22T12:11:22;22.80;99.90
7206;DHT22;3644;53.480;10.004;2022-07-22T12:13:50;23.00;99.90
7206;DHT22;3644;53.480;10.004;2022-07-22T12:19:00;23.20;99.90
7206;DHT22;3644;53.480;10.004;2022-07-22T12:21:28;23.30;99.90
7206;DHT22;3644;53.480;10.004;2022-07-22T12:24:02;23.40;99.90
7206;DHT22;3644;53.480;10.004;2022-07-22T12:26:48;23.20;99.90
7206;DHT22;3644;53.480;10.004;2022-07-22T12:31:47;23.30;99.90
7206;DHT22;3644;53.480;10.004;2022-07-22T12:34:13;22.90;99.90
7206;DHT22;3644;53.480;10.004;2022-07-22T12:36:44;22.80;99.90
7206;DHT22;3644;53.480;10.004;2022-07-22T12:39:17;22.90;99.90
7206;DHT22;3644;53.480;10.004;2022-07-22T12:41:51;23.30;99.90
7206;DHT22;3644;53.480;10.004;2022-07-22T12:44:22;23.40;99.90
7206;DHT22;3644;53.480;10.004;2022-07-22T12:46:50;23.30;99.90
7206;DHT22;3644;53.480;10.004;2022-07-22T12:49:18;23.20;99.90
7206;DHT22;3644;53.480;10.004;2022-07-22T12:54:32;23.00;99.90
7206;DHT22;3644;53.480;10.004;2022-07-22T12:56:58;22.80;99.90
7206;DHT22;3644;53.480;10.004;2022-07-22T12:59:23;22.90;99.90
7206;DHT22;3644;53.480;10.004;2022-07-22T13:01:49;23.00;99.90
7206;DHT22;3644;53.480;10.004;2022-07-22T13:04:14;23.30;99.90
7206;DHT22;3644;53.480;10.004;2022-07-22T13:06:40;23.50;99.90
7206;DHT22;3644;53.480;10.004;2022-07-22T13:09:06;23.60;99.90
7206;DHT22;3644;53.480;10.004;2022-07-22T13:11:32;23.90;99.90
7206;DHT22;3644;53.480;10.004;2022-07-22T13:13:57;24.30;99.90
7206;DHT22;3644;53.480;10.004;2022-07-22T13:16:22;24.10;99.90
7206;DHT22;3644;53.480;10.004;2022-07-22T13:18:50;24.20;99.90
7206;DHT22;3644;53.480;10.004;2022-07-22T13:21:16;23.90;99.90
7206;DHT22;3644;53.480;10.004;2022-07-22T13:23:41;23.90;99.90
7206;DHT22;3644;53.480;10.004;2022-07-22T13:26:07;23.90;99.90
7206;DHT22;3644;53.480;10.004;2022-07-22T13:28:33;24.00;99.90
7206;DHT22;3644;53.480;10.004;2022-07-22T13:30:59;23.90;99.90
7206;DHT22;3644;53.480;10.004;2022-07-22T13:33:24;23.80;99.90
7206;DHT22;3644;53.480;10.004;2022-07-22T13:35:50;23.50;99.90
7206;DHT22;3644;53.480;10.004;2022-07-22T13:38:16;23.50;99.90
7206;DHT22;3644;53.480;10.004;2022-07-22T13:40:43;23.50;99.90
7206;DHT22;3644;53.480;10.004;2022-07-22T13:43:16;23.60;99.90
7206;DHT22;3644;53.480;10.004;2022-07-22T13:45:42;24.00;99.90
7206;DHT22;3644;53.480;10.004;2022-07-22T13:48:07;23.80;99.90
7206;DHT22;3644;53.480;10.004;2022-07-22T13:50:33;23.80;99.90
7206;DHT22;3644;53.480;10.004;2022-07-22T13:52:58;23.60;99.90
7206;DHT22;3644;53.480;10.004;2022-07-22T13:55:25;23.40;99.90
7206;DHT22;3644;53.480;10.004;2022-07-22T13:57:50;23.50;99.90
7206;DHT22;3644;53.480;10.004;2022-07-22T14:00:16;23.40;99.90
7206;DHT22;3644;53.480;10.004;2022-07-22T14:02:44;23.10;99.90
7206;DHT22;3644;53.480;10.004;2022-07-22T14:05:10;23.10;99.90
7206;DHT22;3644;53.480;10.004;2022-07-22T14:07:35;23.40;99.90
7206;DHT22;3644;53.480;10.004;2022-07-22T14:10:01;23.70;99.90
7206;DHT22;3644;53.480;10.004;2022-07-22T14:12:27;23.80;99.90
7206;DHT22;3644;53.480;10.004;2022-07-22T14:14:53;23.70;99.90
7206;DHT22;3644;53.480;10.004;2022-07-22T14:17:18;23.80;99.90
7206;DHT22;3644;53.480;10.004;2022-07-22T14:19:44;23.80;99.90
7206;DHT22;3644;53.480;10.004;2022-07-22T14:22:09;23.60;99.90
7206;DHT22;3644;53.480;10.004;2022-07-22T14:24:35;24.00;99.90
7206;DHT22;3644;53.480;10.004;2022-07-22T14:27:00;23.10;99.90
7206;DHT22;3644;53.480;10.004;2022-07-22T14:29:26;23.10;99.90
7206;DHT22;3644;53.480;10.004;2022-07-22T14:31:51;23.00;99.90
7206;DHT22;3644;53.480;10.004;2022-07-22T14:34:17;23.00;99.90
7206;DHT22;3644;53.480;10.004;2022-07-22T14:36:42;23.00;99.90
7206;DHT22;3644;53.480;10.004;2022-07-22T14:39:08;23.20;99.90
7206;DHT22;3644;53.480;10.004;2022-07-22T14:41:34;22.90;99.90
7206;DHT22;3644;53.480;10.004;2022-07-22T14:43:59;23.30;99.90
7206;DHT22;3644;53.480;10.004;2022-07-22T14:46:25;23.50;99.90
7206;DHT22;3644;53.480;10.004;2022-07-22T14:48:50;23.40;99.90
7206;DHT22;3644;53.480;10.004;2022-07-22T14:51:19;23.30;99.90
7206;DHT22;3644;53.480;10.004;2022-07-22T14:53:46;23.60;99.90
7206;DHT22;3644;53.480;10.004;2022-07-22T14:56:11;23.50;99.90
7206;DHT22;3644;53.480;10.004;2022-07-22T14:58:37;23.60;99.90
7206;DHT22;3644;53.480;10.004;2022-07-22T15:01:02;24.00;99.90
7206;DHT22;3644;53.480;10.004;2022-07-22T15:03:28;23.80;99.90
7206;DHT22;3644;53.480;10.004;2022-07-22T15:05:54;23.90;99.90
7206;DHT22;3644;53.480;10.004;2022-07-22T15:08:19;24.00;99.90
7206;DHT22;3644;53.480;10.004;2022-07-22T15:10:45;24.10;99.90
7206;DHT22;3644;53.480;10.004;2022-07-22T15:13:10;23.90;99.90
7206;DHT22;3644;53.480;10.004;2022-07-22T15:15:36;23.60;99.90
7206;DHT22;3644;53.480;10.004;2022-07-22T15:18:02;23.60;99.90
7206;DHT22;3644;53.480;10.004;2022-07-22T15:20:28;23.30;99.90
7206;DHT22;3644;53.480;10.004;2022-07-22T15:22:53;23.30;99.90
7206;DHT22;3644;53.480;10.004;2022-07-22T15:25:20;23.40;99.90
7206;DHT22;3644;53.480;10.004;2022-07-22T15:27:48;23.60;99.90
7206;DHT22;3644;53.480;10.004;2022-07-22T15:30:14;23.60;99.90
7206;DHT22;3644;53.480;10.004;2022-07-22T15:32:39;23.50;99.90
7206;DHT22;3644;53.480;10.004;2022-07-22T15:35:07;23.20;99.90
7206;DHT22;3644;53.480;10.004;2022-07-22T15:37:32;23.10;99.90
7206;DHT22;3644;53.480;10.004;2022-07-22T15:39:58;23.30;99.90
7206;DHT22;3644;53.480;10.004;2022-07-22T15:42:24;23.00;99.90
7206;DHT22;3644;53.480;10.004;2022-07-22T15:44:49;23.10;99.90
7206;DHT22;3644;53.480;10.004;2022-07-22T15:47:15;23.10;99.90
7206;DHT22;3644;53.480;10.004;2022-07-22T15:49:40;23.10;99.90
7206;DHT22;3644;53.480;10.004;2022-07-22T15:52:06;23.20;99.90
7206;DHT22;3644;53.480;10.004;2022-07-22T15:54:31;23.10;99.90
7206;DHT22;3644;53.480;10.004;2022-07-22T15:56:57;23.10;99.90